Time;durP1;ratioP1;P1;durP2;ratioP2;P2;SDS_P1;SDS_P2;PMS_P1;PMS_P2;Temp;Humidity;BMP_temperature;BMP_pressure;BME280_temperature;BME280_humidity;BME280_pressure;Samples;Min_cycle;Max_cycle;Signal;HPM_P1;HPM_P2
2021/01/05 00:00:34;;;;;;;16.50;10.90;;;7.90;54.00;;;;;;5051112;28;20188;-39
2021/01/05 00:02:59;;;;;;;15.07;10.50;;;7.90;54.10;;;;;;5051309;28;20193;-40
2021/01/05 00:05:25;;;;;;;17.30;10.93;;;7.90;54.10;;;;;;5050266;28;20201;-40
2021/01/05 00:07:51;;;;;;;16.87;10.80;;;7.90;54.20;;;;;;5050866;28;20192;-39
2021/01/05 00:10:18;;;;;;;16.77;10.50;;;7.90;54.20;;;;;;5051415;28;20463;-40
2021/01/05 00:12:44;;;;;;;15.50;10.30;;;7.90;54.10;;;;;;5051564;28;20430;-40
2021/01/05 00:15:12;;;;;;;15.23;10.80;;;7.90;54.10;;;;;;5051721;28;20483;-40
2021/01/05 00:17:38;;;;;;;17.77;11.60;;;7.90;54.10;;;;;;5051186;28;20647;-40
2021/01/05 00:20:08;;;;;;;16.50;10.77;;;7.90;54.20;;;;;;5052149;28;20494;-40
2021/01/05 00:22:34;;;;;;;15.80;10.30;;;7.90;54.40;;;;;;5050735;28;20628;-40
2021/01/05 00:25:00;;;;;;;16.63;11.37;;;7.90;54.30;;;;;;5051991;28;20435;-40
2021/01/05 00:27:25;;;;;;;14.90;11.00;;;7.90;54.10;;;;;;5050988;28;20698;-40
2021/01/05 00:29:51;;;;;;;19.10;11.87;;;8.00;54.20;;;;;;5051746;28;20207;-39
2021/01/05 00:32:21;;;;;;;16.83;11.10;;;8.00;54.10;;;;;;5050803;28;20521;-40
2021/01/05 00:34:47;;;;;;;16.67;10.90;;;8.00;54.00;;;;;;5050240;28;20303;-40
2021/01/05 00:37:15;;;;;;;17.97;10.80;;;8.00;53.90;;;;;;5051052;28;21307;-40
2021/01/05 00:39:41;;;;;;;13.97;9.80;;;8.00;54.10;;;;;;5051367;28;20434;-39
2021/01/05 00:42:06;;;;;;;15.80;11.60;;;8.00;54.20;;;;;;5050611;28;20470;-39
2021/01/05 00:44:32;;;;;;;16.00;11.03;;;8.00;54.20;;;;;;5051649;28;20770;-40
2021/01/05 00:46:58;;;;;;;15.10;10.87;;;7.90;54.20;;;;;;5050805;28;20197;-40
2021/01/05 00:49:23;;;;;;;18.53;12.37;;;8.00;54.40;;;;;;5050781;28;20543;-40
2021/01/05 00:51:49;;;;;;;14.80;10.53;;;8.00;54.40;;;;;;5051133;28;20196;-40
2021/01/05 00:54:15;;;;;;;15.70;10.70;;;8.00;54.50;;;;;;5051511;28;20242;-40
2021/01/05 00:56:40;;;;;;;16.47;10.97;;;8.00;54.60;;;;;;5052154;28;20188;-40
2021/01/05 00:59:06;;;;;;;14.93;11.13;;;8.00;54.50;;;;;;5050584;28;20188;-39
2021/01/05 01:01:32;;;;;;;16.63;11.67;;;8.00;54.50;;;;;;5050053;28;20188;-40
2021/01/05 01:03:58;;;;;;;19.13;12.43;;;8.00;54.50;;;;;;5050893;28;20792;-40
2021/01/05 01:06:24;;;;;;;17.33;11.33;;;8.00;54.40;;;;;;5050969;28;20187;-40
2021/01/05 01:08:50;;;;;;;15.67;11.73;;;8.00;54.30;;;;;;5050592;28;20192;-40
2021/01/05 01:11:15;;;;;;;17.60;11.90;;;8.00;54.30;;;;;;5050674;28;20443;-39
2021/01/05 01:13:41;;;;;;;17.10;10.80;;;8.10;54.30;;;;;;5049796;28;20189;-40
2021/01/05 01:16:07;;;;;;;16.37;11.40;;;8.10;54.30;;;;;;5050262;28;20230;-39
2021/01/05 01:18:33;;;;;;;16.93;11.10;;;8.10;54.20;;;;;;5048080;28;20201;-40
2021/01/05 01:20:59;;;;;;;16.53;11.23;;;8.10;54.30;;;;;;5050430;28;20703;-40
2021/01/05 01:23:25;;;;;;;19.47;11.60;;;8.10;54.50;;;;;;5049206;28;20455;-40
2021/01/05 01:25:50;;;;;;;17.80;11.77;;;8.00;54.50;;;;;;5050936;28;20216;-40
2021/01/05 01:28:16;;;;;;;18.83;11.33;;;8.00;54.50;;;;;;5049600;28;20193;-40
2021/01/05 01:30:42;;;;;;;18.83;11.93;;;8.00;54.40;;;;;;5048659;28;20223;-40
2021/01/05 01:33:07;;;;;;;18.60;12.17;;;8.10;54.40;;;;;;5050099;28;20287;-40
2021/01/05 01:35:33;;;;;;;18.23;11.23;;;8.10;54.30;;;;;;5050313;28;20228;-39
2021/01/05 01:37:59;;;;;;;14.67;11.17;;;8.10;54.30;;;;;;5049882;28;20547;-40
2021/01/05 01:40:50;;;;;;;15.23;10.50;;;8.10;54.20;;;;;;5049722;28;20236;-40
2021/01/05 01:43:16;;;;;;;16.20;11.50;;;8.10;54.10;;;;;;5043971;28;20431;-40
2021/01/05 01:45:42;;;;;;;16.73;11.40;;;8.10;54.10;;;;;;5049949;28;20975;-40
2021/01/05 01:48:09;;;;;;;18.10;10.83;;;8.10;54.20;;;;;;5049465;28;20188;-39
2021/01/05 01:50:35;;;;;;;17.50;10.83;;;8.10;54.30;;;;;;5049212;28;20189;-40
2021/01/05 01:53:07;;;;;;;17.27;12.00;;;8.10;54.40;;;;;;5049856;28;20423;-40
2021/01/05 01:55:51;;;;;;;17.73;12.13;;;8.10;54.40;;;;;;5050297;28;20529;-40
2021/01/05 01:58:53;;;;;;;22.03;12.77;;;8.10;54.50;;;;;;5042783;28;20965;-39
2021/01/05 02:01:22;;;;;;;16.83;11.80;;;8.00;54.50;;;;;;5045816;28;20479;-40
2021/01/05 02:04:12;;;;;;;16.93;11.10;;;8.00;54.50;;;;;;5048199;28;20973;-40
2021/01/05 02:06:57;;;;;;;17.87;11.90;;;8.00;54.60;;;;;;5050408;28;20500;-40
2021/01/05 02:09:25;;;;;;;20.37;12.57;;;8.00;54.70;;;;;;5039897;28;20435;-40
2021/01/05 02:12:10;;;;;;;16.50;10.87;;;8.00;54.70;;;;;;5048950;28;20442;-40
2021/01/05 02:15:02;;;;;;;16.60;11.27;;;8.00;54.70;;;;;;5049314;28;20483;-40
2021/01/05 02:17:33;;;;;;;20.17;12.53;;;8.00;54.80;;;;;;5045312;28;20447;-39
2021/01/05 02:20:27;;;;;;;17.70;11.70;;;8.00;54.80;;;;;;5048990;28;20715;-39
2021/01/05 02:23:16;;;;;;;17.53;10.97;;;8.00;54.80;;;;;;5048709;28;20758;-40
2021/01/05 02:26:03;;;;;;;21.70;12.87;;;8.00;54.80;;;;;;5047881;28;20438;-40
2021/01/05 02:28:35;;;;;;;18.77;12.50;;;8.00;54.70;;;;;;5049655;28;20830;-40
2021/01/05 02:31:30;;;;;;;18.23;12.10;;;8.00;54.60;;;;;;5048462;28;20758;-39
2021/01/05 02:34:23;;;;;;;20.80;12.53;;;8.00;54.60;;;;;;5046415;28;20431;-40
2021/01/05 02:37:13;;;;;;;18.93;11.90;;;8.00;54.60;;;;;;5042162;28;20439;-40
2021/01/05 02:40:02;;;;;;;22.73;12.40;;;7.90;55.10;;;;;;5044923;28;20431;-39
2021/01/05 02:43:15;;;;;;;21.90;12.20;;;7.70;55.70;;;;;;5047993;28;20451;-40
2021/01/05 02:45:43;;;;;;;20.43;11.53;;;7.80;55.60;;;;;;5049859;28;20439;-40
2021/01/05 02:48:21;;;;;;;19.10;12.17;;;7.80;55.70;;;;;;5048291;28;20825;-39
2021/01/05 02:51:16;;;;;;;19.43;11.37;;;7.90;55.20;;;;;;5046146;28;20789;-40
2021/01/05 02:54:06;;;;;;;18.07;12.43;;;7.90;55.20;;;;;;5043722;28;21372;-40
2021/01/05 02:56:50;;;;;;;18.67;12.20;;;7.90;55.20;;;;;;5040788;28;20461;-39
2021/01/05 02:59:22;;;;;;;19.27;13.37;;;7.90;55.30;;;;;;5049697;28;20937;-40
2021/01/05 03:02:12;;;;;;;19.40;12.33;;;7.90;55.50;;;;;;5048369;28;20435;-39
2021/01/05 03:04:38;;;;;;;21.37;12.70;;;7.90;55.40;;;;;;5049113;28;20450;-40
2021/01/05 03:07:17;;;;;;;21.97;12.70;;;8.00;55.40;;;;;;5048876;28;20533;-40
2021/01/05 03:09:51;;;;;;;23.70;13.83;;;8.00;55.30;;;;;;5049295;28;20746;-40
2021/01/05 03:12:34;;;;;;;23.87;13.10;;;8.00;55.30;;;;;;5048812;28;20451;-39
2021/01/05 03:15:34;;;;;;;22.77;13.70;;;8.00;55.40;;;;;;5047258;28;21008;-39
2021/01/05 03:18:06;;;;;;;21.13;14.40;;;8.00;55.30;;;;;;5044590;28;20776;-40
2021/01/05 03:20:46;;;;;;;21.20;14.17;;;8.00;55.30;;;;;;5048218;28;20824;-39
2021/01/05 03:23:13;;;;;;;24.70;13.90;;;8.00;55.20;;;;;;5047416;28;20451;-40
2021/01/05 03:25:42;;;;;;;22.37;15.10;;;8.00;55.10;;;;;;5048626;28;20463;-39
2021/01/05 03:28:11;;;;;;;21.97;14.90;;;8.00;55.10;;;;;;5049080;28;20462;-40
2021/01/05 03:30:47;;;;;;;22.37;13.23;;;8.00;55.10;;;;;;5048644;28;20492;-40
2021/01/05 03:33:13;;;;;;;19.50;13.30;;;8.00;55.60;;;;;;5048531;28;20450;-40
2021/01/05 03:35:39;;;;;;;22.70;14.57;;;8.00;55.60;;;;;;5051731;28;20500;-40
2021/01/05 03:38:04;;;;;;;23.67;12.77;;;8.00;55.50;;;;;;5051624;28;20220;-40
2021/01/05 03:40:30;;;;;;;23.23;14.40;;;7.90;55.70;;;;;;5052324;28;20566;-40
2021/01/05 03:42:56;;;;;;;20.87;13.60;;;7.90;55.70;;;;;;5051600;28;20192;-40
2021/01/05 03:45:28;;;;;;;24.03;14.30;;;7.90;56.00;;;;;;5052550;28;20189;-40
2021/01/05 03:47:54;;;;;;;18.93;13.13;;;7.90;56.10;;;;;;5050912;28;20222;-40
2021/01/05 03:50:21;;;;;;;20.67;13.60;;;7.90;55.80;;;;;;5050410;28;20922;-39
2021/01/05 03:52:47;;;;;;;25.03;13.43;;;8.00;55.80;;;;;;5050941;28;20431;-40
2021/01/05 03:55:15;;;;;;;22.47;13.63;;;7.90;55.80;;;;;;5052685;28;20568;-40
2021/01/05 03:57:40;;;;;;;19.10;13.23;;;7.90;55.80;;;;;;5052172;28;20846;-40
2021/01/05 04:00:08;;;;;;;23.70;13.10;;;7.90;55.80;;;;;;5051480;28;20452;-40
2021/01/05 04:02:34;;;;;;;19.90;13.27;;;8.00;55.70;;;;;;5052145;28;20498;-39
2021/01/05 04:05:00;;;;;;;21.00;13.53;;;8.00;55.50;;;;;;5052753;28;20914;-40
2021/01/05 04:07:25;;;;;;;18.60;13.10;;;8.00;55.60;;;;;;5050776;28;20881;-40
2021/01/05 04:09:51;;;;;;;19.70;13.30;;;8.00;55.60;;;;;;5051825;28;20415;-39
2021/01/05 04:12:17;;;;;;;23.30;13.67;;;8.10;55.60;;;;;;5051888;28;20230;-39
2021/01/05 04:14:43;;;;;;;25.53;13.67;;;8.10;55.50;;;;;;5052191;28;20490;-39
2021/01/05 04:17:08;;;;;;;21.53;12.90;;;8.00;55.70;;;;;;5051139;28;20231;-39
2021/01/05 04:19:34;;;;;;;24.83;14.87;;;8.00;55.80;;;;;;5049862;28;20543;-40
2021/01/05 04:21:59;;;;;;;23.07;14.30;;;8.00;55.70;;;;;;5052064;28;20223;-40
2021/01/05 04:24:25;;;;;;;22.83;13.37;;;8.00;55.60;;;;;;5052148;28;20822;-40
2021/01/05 04:26:50;;;;;;;23.37;14.30;;;8.00;55.60;;;;;;5051179;28;20188;-40
2021/01/05 04:29:16;;;;;;;22.53;14.33;;;8.00;55.70;;;;;;5051913;28;20181;-40
2021/01/05 04:31:43;;;;;;;21.20;13.20;;;8.00;55.80;;;;;;5051204;28;20221;-39
2021/01/05 04:34:10;;;;;;;23.20;14.97;;;8.00;55.70;;;;;;5051762;28;20189;-39
2021/01/05 04:36:36;;;;;;;22.10;14.43;;;8.00;55.80;;;;;;5051596;28;20822;-40
2021/01/05 04:39:03;;;;;;;20.70;13.53;;;8.00;55.80;;;;;;5049817;28;20431;-40
2021/01/05 04:41:35;;;;;;;22.20;14.13;;;8.00;55.80;;;;;;5051458;28;20229;-40
2021/01/05 04:44:03;;;;;;;20.83;14.40;;;8.00;55.80;;;;;;5051125;28;20435;-40
2021/01/05 04:46:50;;;;;;;21.80;13.27;;;8.00;56.00;;;;;;5049504;28;20431;-39
2021/01/05 04:49:24;;;;;;;18.07;11.93;;;8.00;56.00;;;;;;5051302;28;20439;-40
2021/01/05 04:52:02;;;;;;;21.30;13.03;;;8.00;56.20;;;;;;5049595;28;20434;-40
2021/01/05 04:54:37;;;;;;;19.87;13.77;;;8.00;56.20;;;;;;5040812;28;20474;-40
2021/01/05 04:57:09;;;;;;;24.67;15.43;;;8.00;56.00;;;;;;5051410;28;20526;-40
2021/01/05 04:59:43;;;;;;;22.60;14.23;;;8.00;56.10;;;;;;5050850;28;20443;-44
2021/01/05 05:02:30;;;;;;;18.10;12.80;;;8.00;56.10;;;;;;5049349;28;20830;-39
2021/01/05 05:05:18;;;;;;;18.77;12.83;;;7.90;56.40;;;;;;5048512;28;20435;-40
2021/01/05 05:07:55;;;;;;;16.83;12.27;;;7.90;56.70;;;;;;5046238;28;20427;-40
2021/01/05 05:10:56;;;;;;;20.00;12.23;;;8.00;56.50;;;;;;5050666;28;20434;-39
2021/01/05 05:13:36;;;;;;;19.67;12.40;;;8.00;56.40;;;;;;5036678;28;20485;-40
2021/01/05 05:16:28;;;;;;;21.20;13.50;;;8.10;56.40;;;;;;5050974;28;20904;-39
2021/01/05 05:19:00;;;;;;;21.73;14.20;;;8.00;56.50;;;;;;5049787;28;20427;-40
2021/01/05 05:21:51;;;;;;;21.30;13.70;;;8.00;56.70;;;;;;5048998;28;20519;-41
2021/01/05 05:24:25;;;;;;;20.90;13.60;;;8.00;56.80;;;;;;5043005;28;20815;-40
2021/01/05 05:26:50;;;;;;;21.60;13.27;;;8.00;56.70;;;;;;5050252;28;20945;-40
2021/01/05 05:29:37;;;;;;;23.53;13.93;;;8.00;56.80;;;;;;5050012;28;20431;-40
2021/01/05 05:32:12;;;;;;;20.07;13.60;;;8.00;56.90;;;;;;5049606;28;20201;-39
2021/01/05 05:35:04;;;;;;;19.23;12.20;;;8.00;56.80;;;;;;5050416;28;20479;-40
2021/01/05 05:37:54;;;;;;;23.67;13.90;;;8.00;56.70;;;;;;5025825;28;20439;-40
2021/01/05 05:40:48;;;;;;;22.20;13.60;;;8.10;56.90;;;;;;5050480;28;20489;-39
2021/01/05 05:43:38;;;;;;;22.03;14.93;;;8.10;56.90;;;;;;5045582;28;20435;-40
2021/01/05 05:46:06;;;;;;;24.47;14.57;;;8.10;56.80;;;;;;5047913;28;20443;-40
2021/01/05 05:48:45;;;;;;;24.10;14.50;;;8.10;56.80;;;;;;5049879;28;20434;-39
2021/01/05 05:51:13;;;;;;;23.83;14.70;;;8.10;56.90;;;;;;5050065;28;20443;-40
2021/01/05 05:53:55;;;;;;;20.27;13.27;;;8.10;56.80;;;;;;5049311;28;20462;-40
2021/01/05 05:56:49;;;;;;;23.07;13.73;;;8.10;56.80;;;;;;5049826;28;20462;-40
2021/01/05 05:59:16;;;;;;;18.00;12.70;;;8.10;56.90;;;;;;5049381;28;20444;-40
2021/01/05 06:01:42;;;;;;;21.73;13.67;;;8.20;56.90;;;;;;5049771;28;20991;-40
2021/01/05 06:04:08;;;;;;;24.47;14.83;;;8.10;56.90;;;;;;5049810;28;20453;-40
2021/01/05 06:06:37;;;;;;;21.83;13.87;;;8.20;56.90;;;;;;5050463;28;20451;-40
2021/01/05 06:09:04;;;;;;;20.20;13.60;;;8.20;56.80;;;;;;5049300;28;20192;-40
2021/01/05 06:11:33;;;;;;;24.53;14.50;;;8.20;56.80;;;;;;5048535;28;20466;-40
2021/01/05 06:14:01;;;;;;;23.73;13.70;;;8.10;57.50;;;;;;5048619;28;20526;-40
2021/01/05 06:16:30;;;;;;;18.27;13.07;;;8.10;57.30;;;;;;5049526;28;20510;-40
2021/01/05 06:18:56;;;;;;;20.10;13.00;;;8.10;57.80;;;;;;5049185;28;20439;-40
2021/01/05 06:21:22;;;;;;;22.80;13.73;;;8.30;58.20;;;;;;5049697;28;20433;-40
2021/01/05 06:23:47;;;;;;;21.70;14.03;;;8.50;57.30;;;;;;5048834;28;20189;-40
2021/01/05 06:26:16;;;;;;;19.83;13.43;;;8.70;57.30;;;;;;5049993;28;20708;-40
2021/01/05 06:28:42;;;;;;;18.37;14.07;;;8.90;57.10;;;;;;5048553;28;20184;-40
2021/01/05 06:31:08;;;;;;;22.90;15.33;;;9.00;56.30;;;;;;5050181;28;20426;-40
2021/01/05 06:33:33;;;;;;;22.37;14.50;;;9.20;56.40;;;;;;5049097;28;20187;-41
2021/01/05 06:35:59;;;;;;;18.20;11.97;;;9.50;56.70;;;;;;5053607;28;20216;-40
2021/01/05 06:38:25;;;;;;;22.20;14.67;;;9.70;56.10;;;;;;5047129;28;20671;-40
2021/01/05 06:40:50;;;;;;;22.63;15.23;;;9.90;55.00;;;;;;5048846;28;20235;-40
2021/01/05 06:43:16;;;;;;;19.10;14.23;;;10.00;53.70;;;;;;5049166;28;20192;-40
2021/01/05 06:45:41;;;;;;;19.57;14.57;;;10.10;53.00;;;;;;5049448;28;20636;-40
2021/01/05 06:48:07;;;;;;;24.13;15.57;;;10.20;52.40;;;;;;5048807;28;20184;-40
2021/01/05 06:50:33;;;;;;;27.80;18.13;;;10.20;52.50;;;;;;5049396;28;20197;-40
2021/01/05 06:52:58;;;;;;;22.53;14.17;;;10.10;52.20;;;;;;5049641;28;21036;-40
2021/01/05 06:55:24;;;;;;;22.33;13.10;;;10.10;52.10;;;;;;5049973;28;20306;-40
2021/01/05 06:57:50;;;;;;;24.00;14.60;;;9.90;53.10;;;;;;5049622;28;20188;-40
2021/01/05 07:00:22;;;;;;;22.70;15.90;;;9.80;53.40;;;;;;5049268;28;20193;-40
2021/01/05 07:02:48;;;;;;;20.40;14.10;;;9.90;53.60;;;;;;5048910;28;20200;-40
2021/01/05 07:05:15;;;;;;;20.13;14.17;;;9.90;53.60;;;;;;5049056;28;20438;-40
2021/01/05 07:07:41;;;;;;;21.77;14.00;;;10.10;52.90;;;;;;5047299;28;20442;-41
2021/01/05 07:10:07;;;;;;;22.37;13.60;;;10.20;52.70;;;;;;5051565;28;21052;-40
2021/01/05 07:12:34;;;;;;;20.63;15.07;;;10.30;52.30;;;;;;5052763;28;20193;-40
2021/01/05 07:15:00;;;;;;;18.63;13.20;;;10.30;52.10;;;;;;5053458;28;21053;-41
2021/01/05 07:17:25;;;;;;;21.30;14.13;;;10.40;51.90;;;;;;5051757;28;20439;-40
2021/01/05 07:19:51;;;;;;;19.40;13.57;;;10.40;51.70;;;;;;5052572;28;20461;-40
2021/01/05 07:22:17;;;;;;;19.13;14.17;;;10.40;51.60;;;;;;5053122;28;20200;-40
2021/01/05 07:24:42;;;;;;;21.27;14.23;;;10.40;51.50;;;;;;5053302;28;20274;-40
2021/01/05 07:27:08;;;;;;;16.20;12.47;;;10.40;51.60;;;;;;5052966;28;20192;-40
2021/01/05 07:29:33;;;;;;;20.10;13.20;;;10.40;51.60;;;;;;5051402;28;20197;-40
2021/01/05 07:31:59;;;;;;;18.07;12.33;;;10.50;51.60;;;;;;5061553;28;20203;-40
2021/01/05 07:34:24;;;;;;;18.50;12.53;;;10.50;51.60;;;;;;5049709;28;21006;-40
2021/01/05 07:36:56;;;;;;;19.97;14.00;;;10.50;51.50;;;;;;5057185;28;20193;-40
2021/01/05 07:39:26;;;;;;;16.97;13.43;;;10.50;51.60;;;;;;5052276;28;20196;-40
2021/01/05 07:42:09;;;;;;;19.80;13.83;;;10.60;51.60;;;;;;5052374;28;20471;-40
2021/01/05 07:44:35;;;;;;;18.87;12.80;;;10.70;51.40;;;;;;5051813;28;20493;-40
2021/01/05 07:47:01;;;;;;;19.13;13.50;;;10.80;51.20;;;;;;5051889;28;20549;-39
2021/01/05 07:49:26;;;;;;;23.50;14.53;;;10.70;51.00;;;;;;5051631;28;20528;-40
2021/01/05 07:51:52;;;;;;;16.57;11.97;;;10.70;51.00;;;;;;5047655;28;20200;-41
2021/01/05 07:54:18;;;;;;;17.47;13.00;;;10.80;51.10;;;;;;5042037;28;20307;-40
2021/01/05 07:56:44;;;;;;;16.83;12.80;;;10.70;51.00;;;;;;5046470;28;20192;-40
2021/01/05 07:59:10;;;;;;;15.37;11.93;;;10.60;51.20;;;;;;5049267;28;20675;-40
2021/01/05 08:01:36;;;;;;;18.30;13.13;;;10.60;51.50;;;;;;5052527;28;20507;-40
2021/01/05 08:04:01;;;;;;;17.10;12.50;;;10.60;51.70;;;;;;5048990;28;20521;-40
2021/01/05 08:06:27;;;;;;;20.53;13.70;;;10.40;51.70;;;;;;5052822;28;20189;-40
2021/01/05 08:08:53;;;;;;;18.70;12.97;;;10.30;52.30;;;;;;5051241;28;20196;-40
2021/01/05 08:11:18;;;;;;;22.03;14.83;;;10.30;53.40;;;;;;5047903;28;20790;-40
2021/01/05 08:13:44;;;;;;;20.73;13.67;;;10.30;52.80;;;;;;5050833;28;20192;-40
2021/01/05 08:16:15;;;;;;;20.10;14.50;;;10.40;52.40;;;;;;5052563;28;20958;-40
2021/01/05 08:18:40;;;;;;;19.10;15.07;;;10.40;52.50;;;;;;5048873;28;20220;-41
2021/01/05 08:21:09;;;;;;;17.20;14.53;;;10.50;52.50;;;;;;5047792;28;20844;-42
2021/01/05 08:23:34;;;;;;;19.60;12.30;;;10.50;52.30;;;;;;5055245;28;20215;-41
2021/01/05 08:26:00;;;;;;;18.03;12.63;;;10.50;52.30;;;;;;5046912;28;20836;-41
2021/01/05 08:28:26;;;;;;;14.80;11.90;;;10.50;52.00;;;;;;5049010;28;20188;-41
2021/01/05 08:30:51;;;;;;;18.67;13.27;;;10.40;52.10;;;;;;5046960;28;20856;-41
2021/01/05 08:33:17;;;;;;;18.50;14.00;;;10.30;52.50;;;;;;5049953;28;20185;-41
2021/01/05 08:35:46;;;;;;;15.20;12.17;;;10.30;52.70;;;;;;5051616;28;20227;-41
2021/01/05 08:38:12;;;;;;;18.60;14.20;;;10.20;52.80;;;;;;5047968;28;20223;-41
2021/01/05 08:40:38;;;;;;;16.00;12.87;;;10.30;53.10;;;;;;5051498;28;21001;-40
2021/01/05 08:43:11;;;;;;;17.80;12.77;;;10.20;52.70;;;;;;5050357;28;20580;-40
2021/01/05 08:45:40;;;;;;;15.23;11.90;;;10.10;53.10;;;;;;5051314;28;20211;-41
2021/01/05 08:48:05;;;;;;;16.10;12.00;;;10.10;53.40;;;;;;5051175;28;20439;-40
2021/01/05 08:50:32;;;;;;;18.80;12.47;;;10.10;53.40;;;;;;5051074;28;20764;-40
2021/01/05 08:53:04;;;;;;;16.10;12.10;;;10.20;53.50;;;;;;5049538;28;20239;-41
2021/01/05 08:55:33;;;;;;;18.03;11.90;;;10.30;53.30;;;;;;5051045;28;20478;-41
2021/01/05 08:57:58;;;;;;;16.90;12.33;;;10.30;53.10;;;;;;5051677;28;20418;-41
2021/01/05 09:00:24;;;;;;;18.00;12.30;;;10.40;53.10;;;;;;5048645;28;20898;-41
2021/01/05 09:02:50;;;;;;;15.60;11.70;;;10.40;53.00;;;;;;5049322;28;20782;-41
2021/01/05 09:05:16;;;;;;;15.87;12.70;;;10.40;53.00;;;;;;5050567;28;20198;-41
2021/01/05 09:07:42;;;;;;;17.17;13.07;;;10.50;52.80;;;;;;5048959;28;20627;-41
2021/01/05 09:10:13;;;;;;;17.60;12.50;;;10.40;52.70;;;;;;5049100;28;20423;-41
2021/01/05 09:12:39;;;;;;;15.50;12.60;;;10.30;53.00;;;;;;5049297;28;20610;-41
2021/01/05 09:15:05;;;;;;;16.53;11.90;;;10.40;53.50;;;;;;5050540;28;20497;-41
2021/01/05 09:17:31;;;;;;;16.20;12.30;;;10.40;53.00;;;;;;5050978;28;20250;-41
2021/01/05 09:19:57;;;;;;;18.67;13.30;;;10.30;52.80;;;;;;5042421;28;20442;-40
2021/01/05 09:22:23;;;;;;;18.80;12.30;;;10.30;53.00;;;;;;5046853;28;20207;-40
2021/01/05 09:24:49;;;;;;;23.70;13.93;;;10.30;53.10;;;;;;5046690;28;20193;-40
2021/01/05 09:27:15;;;;;;;21.57;14.73;;;10.30;53.30;;;;;;5053183;28;20435;-40
2021/01/05 09:29:40;;;;;;;18.00;12.53;;;10.30;53.60;;;;;;5048273;28;20594;-40
2021/01/05 09:32:06;;;;;;;18.63;13.67;;;10.30;53.70;;;;;;5049958;28;20192;-40
2021/01/05 09:34:31;;;;;;;17.23;13.70;;;10.40;53.50;;;;;;5050954;28;20671;-40
2021/01/05 09:36:57;;;;;;;17.17;12.13;;;10.30;53.30;;;;;;5050168;28;20196;-40
2021/01/05 09:39:24;;;;;;;17.43;13.73;;;10.30;53.50;;;;;;5049945;28;20185;-40
2021/01/05 09:41:57;;;;;;;17.17;12.07;;;10.30;53.50;;;;;;5050822;28;20252;-40
2021/01/05 09:44:23;;;;;;;18.67;13.60;;;10.20;53.40;;;;;;5049910;28;20474;-40
2021/01/05 09:46:51;;;;;;;16.33;12.70;;;10.20;53.60;;;;;;5049518;28;20851;-40
2021/01/05 09:49:17;;;;;;;20.63;14.13;;;10.20;53.40;;;;;;5050103;28;20827;-40
2021/01/05 09:51:43;;;;;;;18.90;12.90;;;10.10;53.60;;;;;;5050618;28;20450;-40
2021/01/05 09:54:09;;;;;;;19.10;13.67;;;10.00;53.90;;;;;;5050469;28;20777;-40
2021/01/05 09:56:35;;;;;;;17.80;13.03;;;9.90;55.00;;;;;;5049182;28;20200;-40
2021/01/05 09:59:01;;;;;;;18.13;13.40;;;10.00;54.50;;;;;;5049108;28;20447;-40
2021/01/05 10:01:28;;;;;;;16.07;11.97;;;10.00;54.50;;;;;;5033912;28;20197;-45
2021/01/05 10:03:54;;;;;;;16.93;13.23;;;10.10;54.10;;;;;;5043023;28;20761;-40
2021/01/05 10:06:22;;;;;;;16.10;13.63;;;10.10;53.90;;;;;;5050724;28;20453;-40
2021/01/05 10:08:48;;;;;;;16.03;12.27;;;10.10;53.90;;;;;;5050738;28;20430;-40
2021/01/05 10:11:13;;;;;;;16.27;12.63;;;10.10;54.10;;;;;;5049337;28;20546;-40
2021/01/05 10:13:39;;;;;;;21.63;13.37;;;10.10;54.30;;;;;;5049438;28;20518;-40
2021/01/05 10:16:05;;;;;;;18.20;13.40;;;10.00;54.40;;;;;;5049755;28;20224;-40
2021/01/05 10:18:30;;;;;;;17.40;13.53;;;9.80;55.40;;;;;;5051642;28;20223;-40
2021/01/05 10:20:56;;;;;;;19.53;14.10;;;9.80;55.80;;;;;;5049074;28;20197;-40
2021/01/05 10:23:21;;;;;;;22.47;14.10;;;9.80;55.90;;;;;;5048355;28;20195;-40
2021/01/05 10:25:47;;;;;;;16.73;12.57;;;9.90;55.90;;;;;;5048130;28;20184;-40
2021/01/05 10:28:14;;;;;;;17.87;13.90;;;10.00;55.00;;;;;;5046476;28;20971;-40
2021/01/05 10:30:40;;;;;;;20.30;15.10;;;10.10;54.80;;;;;;5048047;28;20180;-40
2021/01/05 10:33:05;;;;;;;17.27;12.60;;;10.20;54.40;;;;;;5043825;28;20778;-40
2021/01/05 10:35:31;;;;;;;15.10;12.87;;;10.30;54.20;;;;;;5046559;28;20933;-40
2021/01/05 10:37:57;;;;;;;19.57;13.20;;;10.30;54.10;;;;;;5047048;28;20180;-40
2021/01/05 10:40:22;;;;;;;19.73;14.60;;;10.20;54.10;;;;;;5046880;28;20345;-40
2021/01/05 10:42:49;;;;;;;18.37;13.27;;;10.10;54.30;;;;;;5053219;28;20202;-40
2021/01/05 10:45:21;;;;;;;18.97;13.47;;;10.00;54.50;;;;;;5049332;28;20204;-40
2021/01/05 10:47:48;;;;;;;16.37;12.97;;;9.90;55.50;;;;;;5045470;28;20484;-40
2021/01/05 10:50:17;;;;;;;22.50;14.30;;;10.00;55.00;;;;;;5052823;28;20492;-40
2021/01/05 10:52:45;;;;;;;18.63;14.03;;;10.00;54.90;;;;;;5045178;28;20426;-41
2021/01/05 10:55:12;;;;;;;21.00;15.07;;;9.90;55.80;;;;;;5053024;28;20966;-40
2021/01/05 10:57:37;;;;;;;20.30;13.60;;;9.90;55.90;;;;;;5052959;28;20474;-41
2021/01/05 11:00:04;;;;;;;16.60;13.07;;;9.90;55.80;;;;;;5051629;28;20906;-40
2021/01/05 11:02:30;;;;;;;17.83;13.63;;;10.00;55.00;;;;;;5051876;28;20223;-40
2021/01/05 11:04:55;;;;;;;20.10;13.90;;;10.00;54.80;;;;;;5047226;28;20477;-40
2021/01/05 11:07:21;;;;;;;21.20;16.17;;;10.10;55.00;;;;;;5052962;28;20203;-40
2021/01/05 11:09:46;;;;;;;21.20;15.23;;;10.20;54.70;;;;;;5051406;28;20192;-40
2021/01/05 11:12:19;;;;;;;20.70;14.70;;;10.40;54.70;;;;;;5051472;28;20198;-40
2021/01/05 11:14:45;;;;;;;18.77;14.83;;;10.40;54.30;;;;;;5052907;28;20235;-40
2021/01/05 11:17:10;;;;;;;23.53;15.50;;;10.50;54.10;;;;;;5051590;28;21000;-40
2021/01/05 11:19:37;;;;;;;18.70;14.03;;;10.50;54.10;;;;;;5051838;28;20636;-40
2021/01/05 11:22:05;;;;;;;21.57;16.00;;;10.60;53.90;;;;;;5043733;28;20202;-40
2021/01/05 11:24:34;;;;;;;20.53;15.90;;;10.60;53.90;;;;;;5053206;28;20518;-40
2021/01/05 11:27:00;;;;;;;21.20;16.90;;;10.70;53.90;;;;;;5052329;28;20521;-40
2021/01/05 11:29:26;;;;;;;21.17;16.53;;;10.80;53.90;;;;;;5062687;28;21064;-40
2021/01/05 11:31:59;;;;;;;23.47;14.77;;;10.80;53.70;;;;;;5040600;28;20242;-40
2021/01/05 11:34:25;;;;;;;17.80;14.47;;;10.80;53.50;;;;;;5049569;28;20431;-40
2021/01/05 11:36:51;;;;;;;17.13;13.53;;;10.90;54.10;;;;;;5051891;28;21118;-40
2021/01/05 11:39:17;;;;;;;22.00;15.30;;;10.90;53.20;;;;;;5051162;28;20937;-40
2021/01/05 11:41:45;;;;;;;20.40;14.83;;;10.80;53.20;;;;;;5050120;28;20478;-41
2021/01/05 11:44:14;;;;;;;18.17;14.77;;;10.90;53.50;;;;;;5052601;28;20450;-40
2021/01/05 11:46:40;;;;;;;23.60;16.80;;;10.90;53.40;;;;;;5043662;28;20952;-40
2021/01/05 11:49:06;;;;;;;18.27;13.80;;;10.90;53.20;;;;;;5050085;28;20451;-40
2021/01/05 11:51:35;;;;;;;23.37;15.83;;;10.90;53.00;;;;;;5052694;28;20192;-40
2021/01/05 11:54:01;;;;;;;21.23;14.57;;;10.80;53.10;;;;;;5050617;28;20455;-40
2021/01/05 11:56:28;;;;;;;19.60;13.60;;;10.60;53.60;;;;;;5051594;28;20540;-40
2021/01/05 11:58:55;;;;;;;22.97;15.10;;;10.40;53.80;;;;;;5051711;28;20259;-40
2021/01/05 12:01:20;;;;;;;20.30;14.57;;;10.40;53.90;;;;;;5052600;28;20438;-40
2021/01/05 12:03:46;;;;;;;21.70;15.70;;;10.40;54.10;;;;;;5051216;28;20415;-40
2021/01/05 12:06:12;;;;;;;20.33;14.43;;;10.30;54.10;;;;;;5052490;28;20431;-40
2021/01/05 12:08:37;;;;;;;21.33;15.40;;;10.30;54.30;;;;;;5048250;28;20188;-40
2021/01/05 12:11:03;;;;;;;19.40;14.07;;;10.20;54.30;;;;;;5052164;28;20541;-40
2021/01/05 12:13:29;;;;;;;18.50;12.87;;;10.20;54.50;;;;;;5050751;28;20575;-39
2021/01/05 12:15:54;;;;;;;21.37;14.37;;;10.10;54.30;;;;;;5050973;28;20225;-40
2021/01/05 12:18:20;;;;;;;17.03;13.53;;;10.10;54.60;;;;;;5051155;28;20197;-40
2021/01/05 12:20:46;;;;;;;20.30;14.00;;;10.10;54.70;;;;;;5051987;28;20181;-40
2021/01/05 12:23:11;;;;;;;26.20;14.33;;;10.10;54.70;;;;;;5051954;28;20192;-40
2021/01/05 12:25:38;;;;;;;21.17;13.47;;;10.00;54.70;;;;;;5052288;28;20199;-40
2021/01/05 12:28:05;;;;;;;20.17;14.37;;;10.10;54.90;;;;;;5050835;28;20640;-40
2021/01/05 12:30:30;;;;;;;24.80;15.47;;;10.00;55.10;;;;;;5052434;28;20550;-40
2021/01/05 12:32:56;;;;;;;20.23;13.80;;;10.00;55.20;;;;;;5050741;28;20518;-40
2021/01/05 12:35:21;;;;;;;17.43;12.70;;;10.00;55.30;;;;;;5050832;28;20582;-40
2021/01/05 12:37:47;;;;;;;18.50;12.70;;;9.90;56.10;;;;;;5051419;28;20242;-40
2021/01/05 12:40:14;;;;;;;19.10;14.07;;;9.80;56.20;;;;;;5047401;28;20193;-40
2021/01/05 12:42:40;;;;;;;18.63;12.67;;;9.90;56.20;;;;;;5050803;28;20184;-40
2021/01/05 12:45:07;;;;;;;19.20;13.77;;;9.90;56.20;;;;;;5060406;28;20430;-40